Terminal Aerodrome Forecast
Issued by NWS

Home | Current Version | Previous Version | Graphics & Text | Print | Product List | Glossary Off
Versions: 1 2 3 4 5 6 7 8 9 10 11 12 13 14 15 16 17 18 19 20 21

000
FTUS43 KDDC 300232 AAA
TAFHYS
TAF AMD
KHYS 300232Z 3003/3024 01024G34KT 4SM RA OVC006
     FM301100 35027G35KT 2SM -RA OVC003
     FM301700 34026G36KT 2SM -RA OVC008
     FM302100 34029G43KT 3SM -RA OVC010
     FM302300 33030G40KT 5SM BR OVC015=

USA.gov is the U.S. government's official web portal to all federal, state and local government web resources and services.